Time;durP1;ratioP1;P1;durP2;ratioP2;P2;SDS_P1;SDS_P2;PMS_P1;PMS_P2;Temp;Humidity;BMP_temperature;BMP_pressure;BME280_temperature;BME280_humidity;BME280_pressure;Samples;Min_cycle;Max_cycle;Signal;HPM_P1;HPM_P2
2023/11/23 00:00:09;;;;;;;;;40.00;28.33;;;;;-143.90;100.00;77380.81;4944321;28;101975;-70
2023/11/23 00:02:36;;;;;;;;;37.00;31.67;;;;;-143.90;100.00;77364.25;4942764;28;102310;-71
2023/11/23 00:05:03;;;;;;;;;33.67;28.33;;;;;-143.90;100.00;77368.41;4942598;28;103353;-70
2023/11/23 00:07:31;;;;;;;;;37.00;31.00;;;;;-143.90;100.00;77378.75;4946970;28;101872;-70
2023/11/23 00:09:58;;;;;;;;;49.00;37.67;;;;;-143.90;100.00;77374.59;4943464;28;101572;-69
2023/11/23 00:12:25;;;;;;;;;37.67;31.67;;;;;-143.90;100.00;77364.25;4942049;28;101801;-70
2023/11/23 00:14:51;;;;;;;;;49.33;34.33;;;;;-143.90;100.00;77370.47;4946017;28;103582;-69
2023/11/23 00:17:18;;;;;;;;;41.00;32.00;;;;;-143.90;100.00;77356.00;4949009;28;101693;-71
2023/11/23 00:19:47;;;;;;;;;53.00;36.33;;;;;-143.90;100.00;77351.84;4942688;28;101736;-70
2023/11/23 00:22:16;;;;;;;;;48.67;39.33;;;;;-143.90;100.00;77347.72;4937913;28;101623;-71
2023/11/23 00:24:43;;;;;;;;;47.67;37.33;;;;;-143.90;100.00;77351.84;4944550;28;103409;-71
2023/11/23 00:27:09;;;;;;;;;40.00;27.00;;;;;-143.90;100.00;77349.78;4946580;28;102255;-70
2023/11/23 00:29:36;;;;;;;;;36.67;30.33;;;;;-143.90;100.00;77351.84;4943246;28;103028;-70
2023/11/23 00:32:03;;;;;;;;;35.00;28.67;;;;;-143.90;100.00;77345.66;4941867;28;102009;-70
2023/11/23 00:34:30;;;;;;;;;43.67;35.00;;;;;-143.90;100.00;77347.72;4944785;28;103615;-70
2023/11/23 00:36:56;;;;;;;;;35.67;30.00;;;;;-143.90;100.00;77343.56;4945055;28;101993;-69
2023/11/23 00:39:23;;;;;;;;;41.00;31.67;;;;;-143.90;100.00;77345.66;4942661;28;101490;-70
2023/11/23 00:41:51;;;;;;;;;40.67;32.33;;;;;-143.90;100.00;77335.31;4943887;28;101903;-71
2023/11/23 00:44:17;;;;;;;;;39.33;30.00;;;;;-143.90;100.00;77327.03;4942746;28;107992;-71
2023/11/23 00:46:44;;;;;;;;;42.33;28.67;;;;;-143.90;100.00;77320.81;4943822;28;102129;-70
2023/11/23 00:49:11;;;;;;;;;41.33;36.33;;;;;-143.90;100.00;77320.81;4939698;28;101771;-70
2023/11/23 00:51:37;;;;;;;;;49.67;43.00;;;;;-143.90;100.00;77322.88;4943186;28;101906;-70
2023/11/23 00:54:04;;;;;;;;;44.33;32.67;;;;;-143.90;100.00;77327.03;4945388;28;103452;-70
2023/11/23 00:56:31;;;;;;;;;48.00;39.00;;;;;-143.90;100.00;77318.75;4946282;28;102009;-70
2023/11/23 00:58:58;;;;;;;;;52.00;39.00;;;;;-143.90;100.00;77310.47;4943636;28;102144;-70
2023/11/23 01:01:24;;;;;;;;;38.67;34.67;;;;;-143.90;100.00;77298.06;4943118;28;101783;-70
2023/11/23 01:03:51;;;;;;;;;43.33;30.33;;;;;-143.90;100.00;77293.94;4945210;28;103315;-71
2023/11/23 01:06:17;;;;;;;;;44.67;30.33;;;;;-143.90;100.00;77281.53;4953987;28;102680;-70
2023/11/23 01:08:44;;;;;;;;;53.33;33.33;;;;;-143.90;100.00;77287.72;4959522;28;102999;-71
2023/11/23 01:11:11;;;;;;;;;41.67;30.33;;;;;-143.90;100.00;77281.53;4946223;28;101713;-71
2023/11/23 01:13:41;;;;;;;;;37.33;29.33;;;;;-143.90;100.00;77277.38;4948104;28;103514;-71
2023/11/23 01:16:08;;;;;;;;;57.33;34.00;;;;;-143.90;100.00;77277.38;4944782;28;101811;-71
2023/11/23 01:18:35;;;;;;;;;53.33;37.33;;;;;-143.90;100.00;77269.13;4925407;28;101836;-69
2023/11/23 01:21:02;;;;;;;;;53.67;35.67;;;;;-143.90;100.00;77271.19;4947437;28;102036;-71
2023/11/23 01:23:29;;;;;;;;;41.67;37.00;;;;;-143.90;100.00;77264.97;4953090;28;103374;-70
2023/11/23 01:25:56;;;;;;;;;44.00;34.67;;;;;-143.90;100.00;77264.97;4948996;28;102358;-70
2023/11/23 01:28:23;;;;;;;;;42.67;36.33;;;;;-143.90;100.00;77271.19;4947606;28;101573;-70
2023/11/23 01:30:49;;;;;;;;;42.33;33.00;;;;;-143.90;100.00;77264.97;4945528;28;102753;-71
2023/11/23 01:33:17;;;;;;;;;34.67;32.00;;;;;-143.90;100.00;77269.13;4942768;28;108538;-70
2023/11/23 01:35:44;;;;;;;;;35.67;31.33;;;;;-143.90;100.00;77264.97;4943021;28;101871;-70
2023/11/23 01:38:11;;;;;;;;;42.00;28.33;;;;;-143.90;100.00;77254.63;4942458;28;102045;-70
2023/11/23 01:40:37;;;;;;;;;38.33;32.67;;;;;-143.90;100.00;77252.56;4945604;28;101508;-71
2023/11/23 01:43:10;;;;;;;;;42.67;33.00;;;;;-143.90;100.00;77250.50;4944672;28;103361;-71
2023/11/23 01:45:37;;;;;;;;;38.33;31.33;;;;;-143.90;100.00;77248.44;4948981;28;102003;-71
2023/11/23 01:48:05;;;;;;;;;37.33;29.67;;;;;-143.90;100.00;77238.09;4943722;28;102758;-72
2023/11/23 01:50:33;;;;;;;;;33.00;24.67;;;;;-143.90;100.00;77227.75;4947450;28;102232;-71
2023/11/23 01:53:01;;;;;;;;;42.00;27.67;;;;;-143.90;100.00;77219.47;4945932;28;103543;-71
2023/11/23 01:55:28;;;;;;;;;31.67;25.00;;;;;-143.90;100.00;77211.19;4943910;28;102276;-71
2023/11/23 01:57:57;;;;;;;;;33.33;27.33;;;;;-143.90;100.00;77211.19;4941139;28;101797;-71
2023/11/23 02:00:25;;;;;;;;;42.00;31.33;;;;;-143.90;100.00;77213.25;4943555;28;101869;-70
2023/11/23 02:02:52;;;;;;;;;31.00;21.00;;;;;-143.90;100.00;77207.06;4945622;28;103492;-71
2023/11/23 02:05:22;;;;;;;;;29.33;21.00;;;;;-143.90;100.00;77190.50;4947384;28;101765;-70
2023/11/23 02:07:49;;;;;;;;;49.00;25.67;;;;;-143.90;100.00;77198.78;4945289;28;101785;-71
2023/11/23 02:10:15;;;;;;;;;31.33;26.33;;;;;-143.90;100.00;77202.91;4948974;28;101716;-71
2023/11/23 02:12:43;;;;;;;;;42.33;33.33;;;;;-143.90;100.00;77198.78;4948575;28;103747;-71
2023/11/23 02:15:12;;;;;;;;;44.00;34.00;;;;;-143.90;100.00;77186.38;4942669;28;101807;-71
2023/11/23 02:17:39;;;;;;;;;34.33;30.67;;;;;-143.90;100.00;77194.66;4944087;28;101878;-71
2023/11/23 02:20:09;;;;;;;;;42.67;29.33;;;;;-143.90;100.00;77188.44;4945403;28;102957;-70
2023/11/23 02:22:36;;;;;;;;;39.00;30.67;;;;;-143.90;100.00;77188.44;4941793;28;103469;-73
2023/11/23 02:25:06;;;;;;;;;50.67;37.33;;;;;-143.90;100.00;77182.22;4941884;28;101926;-71
2023/11/23 02:27:36;;;;;;;;;43.00;33.33;;;;;-143.90;100.00;77186.38;4944928;28;101593;-72
2023/11/23 02:30:05;;;;;;;;;38.33;30.67;;;;;-143.90;100.00;77190.50;4941916;28;101632;-72
2023/11/23 02:32:32;;;;;;;;;31.67;19.33;;;;;-143.90;100.00;77188.44;4942019;28;103366;-71
2023/11/23 02:34:59;;;;;;;;;40.33;35.33;;;;;-143.90;100.00;77194.66;4959227;28;101914;-72
2023/11/23 02:37:26;;;;;;;;;31.33;27.67;;;;;-143.90;100.00;77194.66;4944315;28;101761;-71
2023/11/23 02:39:52;;;;;;;;;28.33;21.33;;;;;-143.90;100.00;77190.50;4948475;28;101522;-72
2023/11/23 02:42:19;;;;;;;;;39.67;28.33;;;;;-143.90;100.00;77190.50;4945967;28;103378;-70
2023/11/23 02:44:46;;;;;;;;;29.00;25.00;;;;;-143.90;100.00;77180.16;4941933;28;101945;-71
2023/11/23 02:47:13;;;;;;;;;46.33;31.67;;;;;-143.90;100.00;77176.03;4939808;28;102997;-71
2023/11/23 02:49:39;;;;;;;;;31.00;24.00;;;;;-143.90;100.00;77167.75;4945975;28;101658;-71
2023/11/23 02:52:06;;;;;;;;;32.00;27.33;;;;;-143.90;100.00;77184.31;4945853;28;103641;-71
2023/11/23 02:54:33;;;;;;;;;32.33;23.33;;;;;-143.90;100.00;77173.97;4944785;28;101906;-70
2023/11/23 02:56:59;;;;;;;;;26.33;24.00;;;;;-143.90;100.00;77180.16;4942960;28;101513;-71
2023/11/23 02:59:26;;;;;;;;;30.33;25.00;;;;;-143.90;100.00;77178.09;4948154;28;102047;-71
2023/11/23 03:01:52;;;;;;;;;31.67;29.00;;;;;-143.90;100.00;77173.97;4941220;28;104851;-72
2023/11/23 03:04:19;;;;;;;;;26.67;22.00;;;;;-143.90;100.00;77169.81;4944709;28;103410;-70
2023/11/23 03:06:46;;;;;;;;;32.67;25.33;;;;;-143.90;100.00;77169.81;4942919;28;102100;-71
2023/11/23 03:09:13;;;;;;;;;36.00;31.67;;;;;-143.90;100.00;77163.63;4946187;28;101795;-71
2023/11/23 03:11:40;;;;;;;;;30.00;24.33;;;;;-143.90;100.00;77159.47;4946835;28;103496;-71
2023/11/23 03:14:08;;;;;;;;;35.00;23.67;;;;;-143.90;100.00;77161.56;4933181;28;102753;-70
2023/11/23 03:16:35;;;;;;;;;34.67;28.00;;;;;-143.90;100.00;77159.47;4941900;28;102635;-72
2023/11/23 03:19:01;;;;;;;;;31.67;27.67;;;;;-143.90;100.00;77157.41;4948895;28;101841;-71
2023/11/23 03:21:28;;;;;;;;;27.33;22.33;;;;;-143.90;100.00;77149.13;4948037;28;103349;-70
2023/11/23 03:23:56;;;;;;;;;26.67;21.00;;;;;-143.90;100.00;77140.88;4935150;28;101690;-70
2023/11/23 03:26:23;;;;;;;;;34.00;24.00;;;;;-143.90;100.00;77128.47;4942326;28;101913;-70
2023/11/23 03:28:49;;;;;;;;;21.67;19.33;;;;;-143.90;100.00;77126.38;4945730;28;101733;-71
2023/11/23 03:31:16;;;;;;;;;26.00;20.00;;;;;-143.90;100.00;77120.19;4942082;28;103549;-71
2023/11/23 03:33:42;;;;;;;;;25.67;20.00;;;;;-143.90;100.00;77120.19;4943981;28;102056;-71
2023/11/23 03:36:09;;;;;;;;;25.00;18.67;;;;;-143.90;100.00;77109.84;4941034;28;101526;-71
2023/11/23 03:38:37;;;;;;;;;27.33;20.00;;;;;-143.90;100.00;77103.63;4938408;28;101927;-70
2023/11/23 03:41:04;;;;;;;;;31.33;22.00;;;;;-143.90;100.00;77103.63;4954315;28;103409;-70
2023/11/23 03:43:30;;;;;;;;;23.00;16.67;;;;;-143.90;100.00;77103.63;4945112;28;102154;-72
2023/11/23 03:45:57;;;;;;;;;33.00;27.33;;;;;-143.90;100.00;77099.50;4941274;28;102137;-70
2023/11/23 03:48:24;;;;;;;;;25.67;21.67;;;;;-143.90;100.00;77093.28;4952439;28;101577;-71
2023/11/23 03:50:51;;;;;;;;;24.33;17.67;;;;;-143.90;100.00;77082.94;4944996;28;103353;-71
2023/11/23 03:53:17;;;;;;;;;24.67;21.00;;;;;-143.90;100.00;77080.88;4946102;28;101964;-71
2023/11/23 03:55:44;;;;;;;;;34.00;22.67;;;;;-143.90;100.00;77074.69;4940219;28;101996;-71
2023/11/23 03:58:10;;;;;;;;;25.67;22.33;;;;;-143.90;100.00;77076.75;4946943;28;101706;-70
2023/11/23 04:00:38;;;;;;;;;21.00;19.67;;;;;-143.90;100.00;77051.94;4944516;28;103534;-69
2023/11/23 04:03:05;;;;;;;;;21.67;15.67;;;;;-143.90;100.00;77058.13;4942978;28;102325;-70
2023/11/23 04:05:32;;;;;;;;;28.67;22.00;;;;;-143.90;100.00;77054.00;4941640;28;101699;-69
2023/11/23 04:07:58;;;;;;;;;21.00;15.00;;;;;-143.90;100.00;77054.00;4949219;28;102103;-70
2023/11/23 04:10:25;;;;;;;;;28.00;24.00;;;;;-143.90;100.00;77049.84;4946348;28;103626;-70
2023/11/23 04:12:51;;;;;;;;;27.00;20.00;;;;;-143.90;100.00;77049.84;4944184;28;101705;-70
2023/11/23 04:15:18;;;;;;;;;25.00;21.33;;;;;-143.90;100.00;77037.44;4939231;28;101802;-70
2023/11/23 04:17:45;;;;;;;;;21.67;16.67;;;;;-143.90;100.00;77037.44;4948349;28;101623;-71
2023/11/23 04:20:12;;;;;;;;;26.00;18.67;;;;;-143.90;100.00;77037.44;4944876;28;104403;-70
2023/11/23 04:22:38;;;;;;;;;31.33;26.33;;;;;-143.90;100.00;77033.31;4943117;28;102259;-71
2023/11/23 04:25:05;;;;;;;;;31.67;24.33;;;;;-143.90;100.00;77033.31;4936355;28;101841;-71
2023/11/23 04:27:33;;;;;;;;;21.00;18.00;;;;;-143.90;100.00;77025.03;4949575;28;101584;-70
2023/11/23 04:30:00;;;;;;;;;31.67;25.67;;;;;-143.90;100.00;77018.84;4943318;28;103491;-71
2023/11/23 04:32:27;;;;;;;;;28.67;23.33;;;;;-143.90;100.00;77008.50;4940507;28;102049;-69
2023/11/23 04:34:53;;;;;;;;;24.33;22.33;;;;;-143.90;100.00;77004.34;4946075;28;102117;-71
2023/11/23 04:37:23;;;;;;;;;31.33;25.00;;;;;-143.90;100.00;77002.28;4948347;28;102031;-70
2023/11/23 04:39:51;;;;;;;;;31.00;23.67;;;;;-143.90;100.00;77000.22;4944452;28;103499;-71
2023/11/23 04:42:18;;;;;;;;;27.33;23.33;;;;;-143.90;100.00;76996.09;4945669;28;101946;-71
2023/11/23 04:44:45;;;;;;;;;35.00;28.00;;;;;-143.90;100.00;76987.81;4941598;28;101770;-70
2023/11/23 04:47:12;;;;;;;;;35.00;27.67;;;;;-143.90;100.00;76979.53;4949057;28;102515;-71
2023/11/23 04:49:38;;;;;;;;;33.33;27.33;;;;;-143.90;100.00;76979.53;4946361;28;104276;-71
2023/11/23 04:52:06;;;;;;;;;28.33;16.33;;;;;-143.90;100.00;76958.84;4946912;28;101861;-71
2023/11/23 04:54:32;;;;;;;;;27.67;23.67;;;;;-143.90;100.00;76950.56;4945679;28;102052;-70
2023/11/23 04:56:59;;;;;;;;;31.67;24.00;;;;;-143.90;100.00;76946.44;4950895;28;102537;-71
2023/11/23 04:59:26;;;;;;;;;31.00;24.33;;;;;-143.90;100.00;76938.16;4947691;28;103828;-71
2023/11/23 05:01:53;;;;;;;;;26.33;22.33;;;;;-143.90;100.00;76934.03;4921574;28;101650;-71
2023/11/23 05:04:20;;;;;;;;;34.67;24.33;;;;;-143.90;100.00;76925.75;4921890;28;101912;-71
2023/11/23 05:06:47;;;;;;;;;27.00;21.67;;;;;-143.90;100.00;76913.34;4931337;28;102415;-71
2023/11/23 05:09:14;;;;;;;;;29.67;24.00;;;;;-143.90;100.00;76900.94;4925746;28;103377;-70
2023/11/23 05:11:41;;;;;;;;;32.67;27.00;;;;;-143.90;100.00;76903.00;4927170;28;103045;-70
2023/11/23 05:14:08;;;;;;;;;27.67;25.00;;;;;-143.90;100.00;76900.94;4922816;28;101480;-70
2023/11/23 05:16:35;;;;;;;;;32.33;24.33;;;;;-143.90;100.00;76892.66;4927555;28;101713;-70
2023/11/23 05:19:02;;;;;;;;;29.67;25.00;;;;;-143.90;100.00;76890.59;4929152;28;103417;-70
2023/11/23 05:21:29;;;;;;;;;34.33;30.33;;;;;-143.90;100.00;76892.66;4924871;28;101992;-70
2023/11/23 05:23:56;;;;;;;;;28.00;23.33;;;;;-143.90;100.00;76886.47;4929229;28;102054;-71
2023/11/23 05:26:26;;;;;;;;;39.00;30.00;;;;;-143.90;100.00;76880.25;4930141;28;101816;-71
2023/11/23 05:28:52;;;;;;;;;35.00;26.33;;;;;-143.90;100.00;76869.91;4927093;28;108360;-71
2023/11/23 05:31:19;;;;;;;;;27.00;24.67;;;;;-143.90;100.00;76874.06;4924112;28;102065;-71
2023/11/23 05:33:46;;;;;;;;;29.33;22.33;;;;;-143.90;100.00;76859.56;4922934;28;102556;-70
2023/11/23 05:36:12;;;;;;;;;27.67;24.00;;;;;-143.90;100.00;76863.72;4928991;28;101846;-71
2023/11/23 05:38:39;;;;;;;;;26.00;21.00;;;;;-143.90;100.00;76855.44;4924652;28;103358;-70
2023/11/23 05:41:06;;;;;;;;;34.67;24.67;;;;;-143.90;100.00;76861.63;4921752;28;101999;-70
2023/11/23 05:43:32;;;;;;;;;33.67;25.00;;;;;-143.90;100.00;76853.38;4927090;28;101727;-71
2023/11/23 05:45:59;;;;;;;;;35.00;28.33;;;;;-143.90;100.00;76857.50;4928906;28;101782;-72
2023/11/23 05:48:26;;;;;;;;;33.33;26.67;;;;;-143.90;100.00;76859.56;4929588;28;103795;-71
2023/11/23 05:50:52;;;;;;;;;38.33;31.00;;;;;-143.90;100.00;76840.97;4939574;28;101875;-71
2023/11/23 05:53:19;;;;;;;;;36.33;28.00;;;;;-143.90;100.00;76832.69;4922251;28;103009;-71
2023/11/23 05:55:46;;;;;;;;;25.67;21.33;;;;;-143.90;100.00;76824.41;4931887;28;101718;-72
2023/11/23 05:58:13;;;;;;;;;27.33;23.67;;;;;-143.90;100.00;76830.63;4921698;28;103519;-71
2023/11/23 06:00:41;;;;;;;;;30.00;24.67;;;;;-143.90;100.00;76830.63;4924043;28;101876;-71
2023/11/23 06:03:08;;;;;;;;;28.33;24.67;;;;;-143.90;100.00;76830.63;4927295;28;103043;-70
2023/11/23 06:05:35;;;;;;;;;30.00;19.67;;;;;-143.90;100.00;76809.94;4931414;28;101624;-72
2023/11/23 06:08:03;;;;;;;;;28.00;24.33;;;;;-143.90;100.00;76818.22;4941766;28;103480;-71
2023/11/23 06:10:33;;;;;;;;;36.00;27.33;;;;;-143.90;100.00;76809.94;4923343;28;101865;-71
2023/11/23 06:13:00;;;;;;;;;23.33;17.67;;;;;-143.90;100.00;76795.47;4940398;28;102466;-70
2023/11/23 06:15:27;;;;;;;;;32.33;28.00;;;;;-143.90;100.00;76793.38;4932378;28;101691;-71
2023/11/23 06:17:54;;;;;;;;;30.00;27.33;;;;;-143.90;100.00;76774.78;4927038;28;107973;-71
2023/11/23 06:20:38;;;;;;;;;29.33;22.00;;;;;-143.90;100.00;76776.84;4937147;28;102098;-70
2023/11/23 06:23:05;;;;;;;;;24.33;14.33;;;;;-143.90;100.00;76768.56;4927867;28;101771;-70
2023/11/23 06:25:32;;;;;;;;;26.00;21.33;;;;;-143.90;100.00;76772.72;4930219;28;101618;-71
2023/11/23 06:27:58;;;;;;;;;39.00;27.67;;;;;-143.90;100.00;76762.38;4926038;28;103457;-70
2023/11/23 06:30:41;;;;;;;;;25.33;22.33;;;;;-143.90;100.00;76768.56;4923843;28;101743;-70
2023/11/23 06:33:08;;;;;;;;;25.00;23.67;;;;;-143.90;100.00;76760.28;4929162;28;101637;-71
2023/11/23 06:35:35;;;;;;;;;32.00;21.67;;;;;-143.90;100.00;76756.16;4929850;28;101522;-71
2023/11/23 06:38:02;;;;;;;;;32.33;24.00;;;;;-143.90;100.00;76743.75;4926679;28;103799;-71
2023/11/23 06:40:41;;;;;;;;;34.33;27.67;;;;;-143.90;100.00;76723.06;4921377;28;102079;-71
2023/11/23 06:43:09;;;;;;;;;33.33;27.00;;;;;-143.90;100.00;76725.13;4926607;28;101479;-71
2023/11/23 06:45:35;;;;;;;;;29.67;23.67;;;;;-143.90;100.00;76714.78;4930359;28;101722;-70
2023/11/23 06:48:02;;;;;;;;;35.33;26.33;;;;;-143.90;100.00;76712.72;4919990;28;105993;-72
2023/11/23 06:50:29;;;;;;;;;30.33;21.67;;;;;-143.90;100.00;76714.78;4924909;28;101902;-70
2023/11/23 06:52:55;;;;;;;;;33.67;26.00;;;;;-143.90;100.00;76704.47;4930267;28;101741;-70
2023/11/23 06:55:22;;;;;;;;;28.33;23.00;;;;;-143.90;100.00;76698.25;4926646;28;101906;-70
2023/11/23 06:57:48;;;;;;;;;31.00;28.67;;;;;-143.90;100.00;76698.25;4927876;28;103598;-70
2023/11/23 07:00:25;;;;;;;;;36.33;31.67;;;;;-143.90;100.00;76702.38;4921248;28;102054;-72
2023/11/23 07:02:56;;;;;;;;;34.33;29.00;;;;;-143.90;100.00;76683.78;4927208;28;101928;-70
2023/11/23 07:05:24;;;;;;;;;40.67;31.67;;;;;-143.90;100.00;76669.28;4929091;28;101813;-70
2023/11/23 07:07:51;;;;;;;;;31.00;25.67;;;;;-143.90;100.00;76656.88;4925538;28;102879;-70
2023/11/23 07:10:20;;;;;;;;;38.67;30.00;;;;;-143.90;100.00;76673.44;4923086;28;101916;-70
2023/11/23 07:13:01;;;;;;;;;37.00;31.00;;;;;-143.90;100.00;76681.72;4927256;28;101720;-71
2023/11/23 07:15:29;;;;;;;;;46.67;27.33;;;;;-143.90;100.00;76671.38;4927189;28;101707;-70
2023/11/23 07:17:58;;;;;;;;;41.00;27.67;;;;;-143.90;100.00;76656.88;4926350;28;108097;-71
2023/11/23 07:20:28;;;;;;;;;44.00;25.33;;;;;-143.90;100.00;76648.63;4921260;28;102009;-70
2023/11/23 07:22:55;;;;;;;;;32.00;27.67;;;;;-143.90;100.00;76634.13;4926989;28;101917;-71
2023/11/23 07:25:21;;;;;;;;;41.67;31.33;;;;;-143.90;100.00;76627.94;4925612;28;101953;-71
2023/11/23 07:27:48;;;;;;;;;41.33;36.33;;;;;-143.90;100.00;76615.53;4922127;28;103483;-71
2023/11/23 07:30:15;;;;;;;;;41.67;33.33;;;;;-143.90;100.00;76611.38;4925762;28;101728;-71
2023/11/23 07:32:42;;;;;;;;;47.33;37.00;;;;;-143.90;100.00;76611.38;4928980;28;102111;-70
2023/11/23 07:35:09;;;;;;;;;29.00;20.00;;;;;-143.90;100.00;76625.88;4928365;28;101804;-71
2023/11/23 07:37:35;;;;;;;;;36.00;29.67;;;;;-143.90;100.00;76621.72;4921266;28;104334;-71
2023/11/23 07:40:12;;;;;;;;;44.00;29.00;;;;;-143.90;100.00;76625.88;4918615;28;102195;-70
2023/11/23 07:42:42;;;;;;;;;36.33;28.33;;;;;-143.90;100.00;76609.31;4927002;28;101680;-71
2023/11/23 07:45:09;;;;;;;;;30.00;23.00;;;;;-143.90;100.00;76605.19;4928569;28;101604;-72
2023/11/23 07:47:36;;;;;;;;;32.00;28.67;;;;;-143.90;100.00;76603.13;4924312;28;103355;-71
2023/11/23 07:50:04;;;;;;;;;33.33;28.33;;;;;-143.90;100.00;76590.72;4923616;28;101904;-71
2023/11/23 07:52:31;;;;;;;;;31.67;28.33;;;;;-143.90;100.00;76598.97;4928248;28;101512;-71
2023/11/23 07:54:58;;;;;;;;;35.67;24.00;;;;;-143.90;100.00;76580.38;4926637;28;101912;-71
2023/11/23 07:57:24;;;;;;;;;42.00;33.00;;;;;-143.90;100.00;76578.31;4924898;28;103574;-71
2023/11/23 07:59:56;;;;;;;;;37.67;25.67;;;;;-143.90;100.00;76578.31;4925239;28;102579;-71
2023/11/23 08:02:24;;;;;;;;;33.00;27.00;;;;;-143.90;100.00;76565.88;4926872;28;101679;-71
2023/11/23 08:04:51;;;;;;;;;35.00;29.67;;;;;-143.90;100.00;76561.75;4923934;28;101582;-70
2023/11/23 08:07:18;;;;;;;;;36.33;28.33;;;;;-143.90;100.00;76549.34;4924170;28;103656;-72
2023/11/23 08:09:45;;;;;;;;;42.00;29.00;;;;;-143.90;100.00;76555.53;4922803;28;102079;-72
2023/11/23 08:12:13;;;;;;;;;40.33;30.67;;;;;-143.90;100.00;76557.63;4927702;28;106106;-72
2023/11/23 08:14:39;;;;;;;;;38.00;29.33;;;;;-143.90;100.00;76572.09;4927186;28;101605;-72
2023/11/23 08:17:06;;;;;;;;;39.00;34.00;;;;;-143.90;100.00;76578.31;4922430;28;103422;-71
2023/11/23 08:19:33;;;;;;;;;39.67;28.00;;;;;-143.90;100.00;76578.31;4922727;28;102024;-71
2023/11/23 08:22:02;;;;;;;;;38.00;35.67;;;;;-143.90;100.00;76567.97;4928394;28;101662;-70
2023/11/23 08:24:29;;;;;;;;;40.00;30.33;;;;;-143.90;100.00;76551.41;4926815;28;101816;-70
2023/11/23 08:26:55;;;;;;;;;31.67;27.33;;;;;-143.90;100.00;76549.34;4923594;28;103628;-71
2023/11/23 08:29:22;;;;;;;;;36.33;27.33;;;;;-143.90;100.00;76532.78;4919584;28;101721;-71
2023/11/23 08:31:51;;;;;;;;;38.33;29.00;;;;;-143.90;100.00;76528.66;4927645;28;101755;-71
2023/11/23 08:34:18;;;;;;;;;38.00;29.33;;;;;-143.90;100.00;76526.59;4928665;28;101784;-70
2023/11/23 08:36:44;;;;;;;;;44.00;35.33;;;;;-143.90;100.00;76522.47;4921813;28;103566;-72
2023/11/23 08:39:11;;;;;;;;;34.33;24.00;;;;;-143.90;100.00;76516.25;4924447;28;101771;-71
2023/11/23 08:41:39;;;;;;;;;35.33;30.00;;;;;-143.90;100.00;76507.97;4924517;28;101979;-71
2023/11/23 08:44:05;;;;;;;;;41.33;34.00;;;;;-143.90;100.00;76516.25;4923253;28;101662;-71
2023/11/23 08:46:33;;;;;;;;;41.33;32.00;;;;;-143.90;100.00;76522.47;4919507;28;103349;-72
2023/11/23 08:49:00;;;;;;;;;42.00;33.67;;;;;-143.90;100.00;76520.38;4922265;28;101921;-69
2023/11/23 08:51:29;;;;;;;;;36.33;27.33;;;;;-143.90;100.00;76503.84;4930009;28;102143;-69
2023/11/23 08:53:56;;;;;;;;;33.33;29.33;;;;;-143.90;100.00;76505.91;4925115;28;102403;-71
2023/11/23 08:56:23;;;;;;;;;30.33;28.00;;;;;-143.90;100.00;76499.72;4920087;28;108348;-71
2023/11/23 08:58:50;;;;;;;;;34.67;31.33;;;;;-143.90;100.00;76495.56;4922531;28;101998;-71
2023/11/23 09:01:16;;;;;;;;;37.67;32.33;;;;;-143.90;100.00;76487.31;4927274;28;102630;-71
2023/11/23 09:03:43;;;;;;;;;36.33;32.00;;;;;-143.90;100.00;76495.56;4925006;28;101549;-71
2023/11/23 09:06:10;;;;;;;;;35.00;31.33;;;;;-143.90;100.00;76474.91;4919379;28;103656;-71
2023/11/23 09:08:37;;;;;;;;;45.00;35.33;;;;;-143.90;100.00;76456.28;4923399;28;101629;-71
2023/11/23 09:11:03;;;;;;;;;35.67;31.00;;;;;-143.90;100.00;76456.28;4927564;28;103092;-72
2023/11/23 09:13:31;;;;;;;;;37.00;31.67;;;;;-143.90;100.00;76450.06;4928605;28;102005;-70
2023/11/23 09:15:58;;;;;;;;;36.33;29.33;;;;;-143.90;100.00;76431.47;4919675;28;103355;-70
2023/11/23 09:18:25;;;;;;;;;40.67;31.00;;;;;-143.90;100.00;76421.13;4927369;28;102539;-71
2023/11/23 09:20:52;;;;;;;;;44.33;32.33;;;;;-143.90;100.00;76425.25;4926496;28;102005;-71
2023/11/23 09:23:18;;;;;;;;;44.00;28.00;;;;;-143.90;100.00;76417.00;4927053;28;103116;-72
2023/11/23 09:25:46;;;;;;;;;35.00;28.67;;;;;-143.90;100.00;76408.72;4921452;28;103481;-72
2023/11/23 09:28:14;;;;;;;;;35.67;31.67;;;;;-143.90;100.00;76400.44;4931182;28;101881;-71
2023/11/23 09:30:41;;;;;;;;;49.33;40.00;;;;;-143.90;100.00;76392.16;4931474;28;101604;-72
2023/11/23 09:33:09;;;;;;;;;44.00;32.00;;;;;-143.90;100.00;76379.75;4941827;28;101544;-71
2023/11/23 09:35:42;;;;;;;;;41.67;30.33;;;;;-143.90;100.00;76371.50;4921757;28;103128;-71
2023/11/23 09:38:09;;;;;;;;;35.33;27.33;;;;;-143.90;100.00;76350.81;4944229;28;103412;-71
2023/11/23 09:40:36;;;;;;;;;36.33;29.67;;;;;-143.90;100.00;76334.25;4928000;28;101582;-71
2023/11/23 09:43:04;;;;;;;;;41.00;31.00;;;;;-143.90;100.00;76336.34;4925667;28;101740;-71
2023/11/23 09:45:31;;;;;;;;;44.00;30.00;;;;;-143.90;100.00;76334.25;4920689;28;103387;-70
2023/11/23 09:48:00;;;;;;;;;27.67;26.67;;;;;-143.90;100.00;76330.13;4924729;28;101768;-70
2023/11/23 09:50:27;;;;;;;;;42.33;29.00;;;;;-143.90;100.00;76338.41;4932582;28;101860;-71
2023/11/23 09:52:59;;;;;;;;;41.67;33.00;;;;;-143.90;100.00;76313.59;4926918;28;105235;-71
2023/11/23 09:55:25;;;;;;;;;32.00;29.33;;;;;-143.90;100.00;76307.38;4922125;28;108327;-71
2023/11/23 09:57:52;;;;;;;;;36.00;29.67;;;;;-143.90;100.00;76292.91;4924180;28;101905;-71
2023/11/23 10:00:21;;;;;;;;;38.00;27.67;;;;;-143.90;100.00;76292.91;4928887;28;102628;-72
2023/11/23 10:02:58;;;;;;;;;39.33;30.67;;;;;-143.90;100.00;76305.31;4924922;28;103175;-71
2023/11/23 10:05:28;;;;;;;;;40.33;30.00;;;;;-143.90;100.00;76292.91;4923034;28;108079;-72
2023/11/23 10:07:55;;;;;;;;;41.33;25.67;;;;;-143.90;100.00;76297.03;4932352;28;101642;-70
2023/11/23 10:10:21;;;;;;;;;30.67;28.33;;;;;-143.90;100.00;76268.09;4924314;28;101524;-70
2023/11/23 10:12:49;;;;;;;;;35.00;28.00;;;;;-143.90;100.00;76257.75;4933938;28;101569;-71
2023/11/23 10:15:16;;;;;;;;;28.33;24.00;;;;;-143.90;100.00;76249.47;4924624;28;103483;-71
2023/11/23 10:17:42;;;;;;;;;34.67;26.00;;;;;-143.90;100.00;76266.03;4931824;28;101694;-71
2023/11/23 10:20:12;;;;;;;;;48.33;29.67;;;;;-143.90;100.00;76251.53;4927413;28;101684;-72
2023/11/23 10:22:44;;;;;;;;;39.33;29.67;;;;;-143.90;100.00;76243.28;4928349;28;101882;-71
2023/11/23 10:25:36;;;;;;;;;38.00;27.33;;;;;-143.90;100.00;76226.72;4924332;28;103424;-71
2023/11/23 10:28:06;;;;;;;;;34.67;27.00;;;;;-143.90;100.00;76218.47;4928211;28;101698;-70
2023/11/23 10:30:39;;;;;;;;;46.33;32.33;;;;;-143.90;100.00;76220.53;4895608;28;102978;-72
2023/11/23 10:33:09;;;;;;;;;39.50;25.25;;;;;-143.90;100.00;76251.53;4928089;28;101682;-71
2023/11/23 10:35:41;;;;;;;;;34.00;26.00;;;;;-143.90;100.00;76230.88;4921147;28;103730;-71
2023/11/23 10:38:08;;;;;;;;;32.00;25.67;;;;;-143.90;100.00;76212.25;4929854;28;102685;-72
2023/11/23 10:40:35;;;;;;;;;38.00;24.00;;;;;-143.90;100.00;76197.78;4927277;28;102352;-72
2023/11/23 10:43:03;;;;;;;;;30.67;25.00;;;;;-143.90;100.00;76187.44;4925508;28;102726;-71
2023/11/23 10:45:35;;;;;;;;;38.00;26.50;;;;;-143.90;100.00;76181.25;4925527;28;103277;-72
2023/11/23 10:48:03;;;;;;;;;46.33;34.00;;;;;-143.90;100.00;76181.25;4920027;28;102944;-72